Cibolo — WDI7436 — position and weather

sailwx.info

Track history (hours):
 
Tides and Currents Weather Stations Pressure Air Temp Water Temp Dewpoint Dewpoint Depression Visibility Wind Speed Wind Dir Waves Ship Positions

Cibolo

Owner: Kirby Inland Marine LP, Houston, TX. More information available from US FCC via Universal Licensing System and Coast Guard Vessel Documentation Center.

Last reported at 2018-Feb-07 22:58 UTC. Time now 2018-Feb-19 00:14 UTC.
Position N 31°60' W 091°05'.
Warning: this ship's position is 11 days out of date.

Length 122 m; draft 3 m.

Type: . MMSI: 367728710.

Date/timePositionNaut miles runAvg speedWind from/ knotsBaromVisibWave heightAir tempDewpointWater temp
2018-Feb-07 22:58N 31°60' W 091°05'8 8.4
2018-Feb-07 22:03N 32°07' W 091°07'0 8.7
2018-Feb-07 22:00N 32°08' W 091°06'4 8.6
2018-Feb-07 21:30N 32°07' W 091°01'  
2018-Feb-04 09:00N 38°41' W 090°11'8 3.8
2018-Feb-04 06:56N 38°48' W 090°07'3 7.3
2018-Feb-04 06:30N 38°51' W 090°07'2 2.6
2018-Feb-04 05:50N 38°52' W 090°09'2 4.6
2018-Feb-04 05:30N 38°53' W 090°11'0 0.5
2018-Feb-04 04:58N 38°53' W 090°11'0 0.0
2018-Feb-04 04:26N 38°53' W 090°11'2 4.1
2018-Feb-04 04:00N 38°52' W 090°09'0 0.2
2018-Feb-04 03:24N 38°52' W 090°09'2 4.0
2018-Feb-04 03:00N 38°53' W 090°11'1 2.6
2018-Feb-04 02:29N 38°54' W 090°12'3 7.0
2018-Feb-04 02:00N 38°55' W 090°16'4 7.3
2018-Feb-04 01:30N 38°57' W 090°21'4 7.7
2018-Feb-04 01:00N 38°58' W 090°26'4 7.3
2018-Feb-04 00:29N 38°58' W 090°30'3 6.3
2018-Feb-04 00:00N 38°59' W 090°34'  
Track history (hours):
 
Tides and Currents Weather Stations Pressure Air Temp Water Temp Dewpoint Dewpoint Depression Visibility Wind Speed Wind Dir Waves Ship Positions

Cibolo

Owner: Kirby Inland Marine LP, Houston, TX. More information available from US FCC via Universal Licensing System and Coast Guard Vessel Documentation Center.

Last reported at 2018-Feb-07 22:58 UTC. Time now 2018-Feb-19 00:14 UTC.
Position N 31°60' W 091°05'.
Warning: this ship's position is 11 days out of date.

Length 122 m; draft 3 m.

Type: . MMSI: 367728710.

Date/timePositionNaut miles runAvg speedWind from/ knotsBaromVisibWave heightAir tempDewpointWater temp
2018-Feb-07 22:58N 31°60' W 091°05'8 8.4
2018-Feb-07 22:03N 32°07' W 091°07'0 8.7
2018-Feb-07 22:00N 32°08' W 091°06'4 8.6
2018-Feb-07 21:30N 32°07' W 091°01'  
2018-Feb-04 09:00N 38°41' W 090°11'8 3.8
2018-Feb-04 06:56N 38°48' W 090°07'3 7.3
2018-Feb-04 06:30N 38°51' W 090°07'2 2.6
2018-Feb-04 05:50N 38°52' W 090°09'2 4.6
2018-Feb-04 05:30N 38°53' W 090°11'0 0.5
2018-Feb-04 04:58N 38°53' W 090°11'0 0.0
2018-Feb-04 04:26N 38°53' W 090°11'2 4.1
2018-Feb-04 04:00N 38°52' W 090°09'0 0.2
2018-Feb-04 03:24N 38°52' W 090°09'2 4.0
2018-Feb-04 03:00N 38°53' W 090°11'1 2.6
2018-Feb-04 02:29N 38°54' W 090°12'3 7.0
2018-Feb-04 02:00N 38°55' W 090°16'4 7.3
2018-Feb-04 01:30N 38°57' W 090°21'4 7.7
2018-Feb-04 01:00N 38°58' W 090°26'4 7.3
2018-Feb-04 00:29N 38°58' W 090°30'3 6.3
2018-Feb-04 00:00N 38°59' W 090°34'  

Dump ship's entire track history